Hoogkamp, Netherlands
Current Conditions -  °F | °C
As of 6:25 PM on Thursday 27 Nov 2014 (Local Time) from EHDL Reporting Station
Light Rain Light Rain  
Wind Chill: 39°   Ceiling: 5600
Heat Index: 45°   Visibility: 2.2mi
Dew Point: 43°   Wind: 10mph
Humidity: 93%   Direction: 100°E
Pressure: 29.71"   Gusts: NA
Location:  52°N, 5.88°E
Report Text: EHDL 271725Z AUTO 10009KT 3600 -RA FEW028 SCT034 OVC056 07/06 Q1006 RERA REDZ YLO
Loading
Personal Weather Stations






























Interactive Weather Map New forecast layout! Learn more

10-Day Weather Forecast

Advertisements
Track Severe Weather on mobile